Terminal Aerodrome Forecast
Issued by NWS

Home | Current Version | Previous Version | Text Only | Print | Product List | Glossary On
Versions: 1 2 3 4 5 6 7 8 9 10 11 12 13 14 15 16 17 18 19
000
FTUS41 KPHI 201125
TAFPNE
TAF
KPNE 201125Z 2012/2112 24006KT 2SM -DZ BR OVC002 WS020/23035KT
      TEMPO 2012/2015 1/2SM -DZ FG
     FM201500 23007KT 2SM BR BKN005
     FM201700 23010KT 4SM BR BKN016
     FM202000 23010KT P6SM BKN050
     FM210000 20004KT 2SM BR BKN012
     FM210200 VRB03KT 1/2SM FG BKN004=

USA.gov is the U.S. government's official web portal to all federal, state and local government web resources and services.